Time;durP1;ratioP1;P1;durP2;ratioP2;P2;SDS_P1;SDS_P2;PMS_P1;PMS_P2;Temp;Humidity;BMP_temperature;BMP_pressure;BME280_temperature;BME280_humidity;BME280_pressure;Samples;Min_cycle;Max_cycle;Signal;HPM_P1;HPM_P2
2022/01/17 00:00:14;;;;;;;14.45;2.58;;;6.70;99.90;;;;;;5133884;27;20054;-68
2022/01/17 00:02:41;;;;;;;12.90;2.38;;;6.70;99.90;;;;;;5111252;27;20043;-68
2022/01/17 00:05:08;;;;;;;10.07;2.00;;;6.70;99.90;;;;;;5093160;28;20051;-68
2022/01/17 00:07:34;;;;;;;18.13;2.53;;;6.70;99.90;;;;;;5116037;27;20054;-68
2022/01/17 00:09:59;;;;;;;16.88;2.50;;;6.70;99.90;;;;;;5133995;27;20035;-68
2022/01/17 00:12:27;;;;;;;16.67;2.97;;;6.70;99.90;;;;;;5133796;27;20053;-68
2022/01/17 00:14:56;;;;;;;12.10;2.67;;;6.70;99.90;;;;;;5133915;27;20447;-68
2022/01/17 00:17:30;;;;;;;12.13;2.75;;;6.70;99.90;;;;;;5098606;27;20386;-68
2022/01/17 00:19:56;;;;;;;16.05;2.22;;;6.70;99.90;;;;;;5115430;27;20035;-68
2022/01/17 00:22:23;;;;;;;11.07;2.20;;;6.70;99.90;;;;;;5115255;27;20510;-68
2022/01/17 00:24:50;;;;;;;13.65;2.58;;;6.70;99.90;;;;;;5115175;27;20092;-68
2022/01/17 00:27:16;;;;;;;17.52;2.17;;;6.70;99.90;;;;;;5133496;27;20053;-68
2022/01/17 00:29:42;;;;;;;15.75;1.98;;;6.70;99.90;;;;;;5114785;27;20039;-68
2022/01/17 00:32:08;;;;;;;13.13;3.13;;;6.60;99.90;;;;;;5114999;27;20035;-68
2022/01/17 00:34:34;;;;;;;14.93;3.00;;;6.60;99.90;;;;;;5115285;27;20047;-68
2022/01/17 00:36:59;;;;;;;17.08;2.42;;;6.60;99.90;;;;;;5133409;27;20046;-68
2022/01/17 00:39:25;;;;;;;20.23;2.53;;;6.60;99.90;;;;;;5133464;27;20031;-67
2022/01/17 00:41:51;;;;;;;19.48;2.83;;;6.60;99.90;;;;;;5114948;27;20043;-67
2022/01/17 00:44:22;;;;;;;13.63;2.45;;;6.60;99.90;;;;;;5133388;27;20039;-68
2022/01/17 00:46:49;;;;;;;12.65;1.95;;;6.60;99.90;;;;;;5115064;27;20031;-68
2022/01/17 00:49:15;;;;;;;11.48;2.05;;;6.60;99.90;;;;;;5133287;27;20043;-67
2022/01/17 00:51:41;;;;;;;16.30;2.60;;;6.60;99.90;;;;;;5114656;27;20043;-67
2022/01/17 00:54:06;;;;;;;16.52;2.40;;;6.60;99.90;;;;;;5132983;27;20054;-67
2022/01/17 00:56:32;;;;;;;15.23;2.60;;;6.60;99.90;;;;;;5119070;28;20031;-67
2022/01/17 00:58:58;;;;;;;11.70;2.03;;;6.50;99.90;;;;;;5137807;27;20039;-67
2022/01/17 01:01:23;;;;;;;22.52;2.60;;;6.50;99.90;;;;;;5133970;27;20035;-67
2022/01/17 01:03:49;;;;;;;15.38;2.30;;;6.50;99.90;;;;;;5097456;27;20039;-68
2022/01/17 01:06:15;;;;;;;11.43;2.35;;;6.50;99.90;;;;;;5114666;27;20035;-68
2022/01/17 01:08:40;;;;;;;20.08;2.45;;;6.50;99.90;;;;;;5114813;27;20066;-68
2022/01/17 01:11:06;;;;;;;8.90;2.00;;;6.50;99.90;;;;;;5114484;27;20039;-68
2022/01/17 01:13:32;;;;;;;17.05;2.90;;;6.50;99.90;;;;;;5114177;27;20115;-67
2022/01/17 01:29:20;;;;;;;17.50;2.10;;;6.40;99.90;;;;;;5132848;28;20047;-67
2022/01/17 01:31:51;;;;;;;16.27;2.63;;;6.50;99.90;;;;;;5113989;28;20043;-67
2022/01/17 01:34:20;;;;;;;10.82;2.80;;;6.40;99.90;;;;;;5132461;27;20057;-68
2022/01/17 01:36:48;;;;;;;10.85;3.03;;;6.40;99.90;;;;;;5132460;28;20095;-68
2022/01/17 01:39:21;;;;;;;18.20;3.22;;;6.40;99.90;;;;;;5114260;27;20055;-67
2022/01/17 01:41:47;;;;;;;13.13;2.30;;;6.30;99.90;;;;;;5117199;27;20091;-67
2022/01/17 01:44:15;;;;;;;18.10;2.80;;;6.30;99.90;;;;;;5118386;27;20490;-68
2022/01/17 01:46:42;;;;;;;19.48;3.17;;;6.40;99.90;;;;;;5118358;27;20039;-68
2022/01/17 01:49:08;;;;;;;15.00;2.38;;;6.30;99.90;;;;;;5136755;27;20050;-68
2022/01/17 01:51:34;;;;;;;16.77;2.30;;;6.30;99.90;;;;;;5136561;27;20622;-68
2022/01/17 01:53:59;;;;;;;12.45;2.50;;;6.30;99.90;;;;;;5117746;27;20039;-67
2022/01/17 01:56:25;;;;;;;17.10;2.50;;;6.30;99.90;;;;;;5117591;27;20062;-68
2022/01/17 01:58:50;;;;;;;15.13;2.20;;;6.20;99.90;;;;;;5117886;27;20401;-68
2022/01/17 02:01:16;;;;;;;23.67;3.25;;;6.20;99.90;;;;;;5136497;27;20039;-68
2022/01/17 02:03:42;;;;;;;14.85;2.22;;;6.20;99.90;;;;;;5117526;27;20035;-68
2022/01/17 02:06:07;;;;;;;17.17;2.20;;;6.20;99.90;;;;;;5118138;27;20039;-68
2022/01/17 02:08:34;;;;;;;29.90;3.75;;;6.20;99.90;;;;;;5136251;27;20035;-68
2022/01/17 02:10:59;;;;;;;17.23;3.92;;;6.20;99.90;;;;;;5136260;27;20071;-68
2022/01/17 02:13:26;;;;;;;17.42;3.08;;;6.20;99.90;;;;;;5117505;27;20525;-68
2022/01/17 02:15:59;;;;;;;12.38;2.45;;;6.20;99.90;;;;;;5117837;27;20042;-67
2022/01/17 02:18:30;;;;;;;12.60;3.15;;;6.20;99.90;;;;;;5137029;27;20436;-67
2022/01/17 02:21:20;;;;;;;14.93;2.90;;;6.20;99.90;;;;;;5120765;27;20039;-67
2022/01/17 02:23:52;;;;;;;17.48;3.10;;;6.20;99.90;;;;;;5140647;27;20098;-67
2022/01/17 02:26:18;;;;;;;13.57;2.67;;;6.20;99.90;;;;;;5117952;27;20074;-67
2022/01/17 02:28:50;;;;;;;18.35;2.75;;;6.20;99.90;;;;;;5117412;27;20047;-68
2022/01/17 02:31:16;;;;;;;13.68;2.20;;;6.20;99.90;;;;;;5117571;27;20039;-67
2022/01/17 02:33:42;;;;;;;19.27;2.70;;;6.20;99.90;;;;;;5134793;27;20050;-68
2022/01/17 02:36:08;;;;;;;17.30;2.10;;;6.20;99.90;;;;;;5116163;28;20503;-68
2022/01/17 02:38:34;;;;;;;20.98;2.47;;;6.20;99.90;;;;;;5116194;28;20051;-68
2022/01/17 02:41:00;;;;;;;22.38;3.17;;;6.20;99.90;;;;;;5116014;28;20043;-67
2022/01/17 02:43:27;;;;;;;19.42;2.97;;;6.20;99.90;;;;;;5115654;28;20050;-67
2022/01/17 02:48:23;;;;;;;18.92;2.63;;;6.10;99.90;;;;;;5134506;28;20168;-67
2022/01/17 02:50:49;;;;;;;20.73;2.65;;;6.00;99.90;;;;;;5115888;27;20035;-67
2022/01/17 02:53:15;;;;;;;17.30;3.10;;;6.00;99.90;;;;;;5115244;28;20039;-67
2022/01/17 02:55:50;;;;;;;10.93;2.38;;;6.00;99.90;;;;;;5116046;28;20425;-67
2022/01/17 02:58:18;;;;;;;20.88;2.95;;;6.00;99.90;;;;;;5115732;28;20043;-67
2022/01/17 03:00:44;;;;;;;22.52;2.97;;;6.00;99.90;;;;;;5115758;28;20078;-67
2022/01/17 03:03:14;;;;;;;20.10;3.28;;;6.00;99.90;;;;;;5115396;28;20039;-67
2022/01/17 03:05:39;;;;;;;15.13;2.47;;;5.90;99.90;;;;;;5134180;28;20038;-67
2022/01/17 03:08:05;;;;;;;12.10;3.97;;;6.00;99.90;;;;;;5133991;28;20043;-67
2022/01/17 03:10:39;;;;;;;19.45;2.72;;;6.00;99.90;;;;;;5115796;28;20039;-67
2022/01/17 03:13:12;;;;;;;18.95;3.67;;;5.90;99.90;;;;;;5133744;27;20082;-67
2022/01/17 03:15:38;;;;;;;16.15;2.38;;;5.90;99.90;;;;;;5134082;28;20043;-67
2022/01/17 03:18:04;;;;;;;22.75;3.33;;;5.90;99.90;;;;;;5133858;28;20120;-67
2022/01/17 03:20:31;;;;;;;18.15;2.75;;;5.90;99.90;;;;;;5115879;28;20120;-68
2022/01/17 03:22:57;;;;;;;14.80;2.25;;;5.90;99.90;;;;;;5114857;27;20571;-67
2022/01/17 03:25:23;;;;;;;14.75;2.38;;;5.80;99.90;;;;;;5115711;28;20484;-67
2022/01/17 03:27:48;;;;;;;12.57;3.13;;;5.80;99.90;;;;;;5098227;28;20076;-67
2022/01/17 03:30:14;;;;;;;13.88;2.67;;;5.80;99.90;;;;;;5133832;28;20082;-67
2022/01/17 03:32:40;;;;;;;15.48;3.08;;;5.80;99.90;;;;;;5077345;27;1059598;-67
2022/01/17 03:35:07;;;;;;;10.45;2.30;;;5.80;99.90;;;;;;5116371;27;20057;-68
2022/01/17 03:37:33;;;;;;;18.35;2.63;;;5.70;99.90;;;;;;5134619;27;20035;-68
2022/01/17 03:39:58;;;;;;;19.48;2.80;;;5.80;99.90;;;;;;5116474;27;20035;-67
2022/01/17 03:42:24;;;;;;;18.08;3.17;;;5.70;99.90;;;;;;5134306;27;20041;-68
2022/01/17 03:44:50;;;;;;;12.05;2.40;;;5.70;99.90;;;;;;5115952;27;20088;-67
2022/01/17 03:47:16;;;;;;;20.27;4.03;;;5.70;99.90;;;;;;5136943;27;20099;-67
2022/01/17 03:49:42;;;;;;;13.27;2.85;;;5.70;99.90;;;;;;5118332;27;20070;-67
2022/01/17 03:52:07;;;;;;;17.70;2.90;;;5.70;99.90;;;;;;5116110;27;20046;-67
2022/01/17 03:54:33;;;;;;;15.23;2.95;;;5.70;99.90;;;;;;5134196;27;20046;-68
2022/01/17 03:56:59;;;;;;;12.23;2.35;;;5.70;99.90;;;;;;5116001;27;20083;-68
2022/01/17 03:59:25;;;;;;;13.68;2.50;;;5.70;99.90;;;;;;5116042;27;20114;-68
2022/01/17 04:01:50;;;;;;;15.52;2.47;;;5.70;99.90;;;;;;5115565;27;20424;-68
2022/01/17 04:04:16;;;;;;;16.15;2.33;;;5.70;99.90;;;;;;5114649;27;20122;-68
2022/01/17 04:06:42;;;;;;;17.05;2.30;;;5.70;99.90;;;;;;5115607;27;20042;-68
2022/01/17 04:09:08;;;;;;;14.88;2.70;;;5.80;99.90;;;;;;5116091;27;20039;-68
2022/01/17 04:11:34;;;;;;;13.55;2.47;;;5.80;99.90;;;;;;5133933;27;20140;-67
2022/01/17 04:13:59;;;;;;;15.77;2.33;;;5.70;99.90;;;;;;5115199;27;20126;-67
2022/01/17 04:16:25;;;;;;;22.77;3.42;;;5.70;99.90;;;;;;5115455;27;20043;-67
2022/01/17 04:18:52;;;;;;;19.80;4.53;;;5.80;99.90;;;;;;5115493;27;20043;-67
2022/01/17 04:21:18;;;;;;;13.57;3.05;;;5.70;99.90;;;;;;5115282;28;20043;-67
2022/01/17 04:23:43;;;;;;;12.65;2.35;;;5.70;99.90;;;;;;5133314;27;20043;-67
2022/01/17 04:26:09;;;;;;;17.90;2.55;;;5.60;99.90;;;;;;5115360;27;20507;-68
2022/01/17 04:28:35;;;;;;;11.43;2.65;;;5.70;99.90;;;;;;5133439;27;20495;-68
2022/01/17 04:31:01;;;;;;;17.42;3.25;;;5.70;99.90;;;;;;5115276;27;20042;-68
2022/01/17 04:33:26;;;;;;;11.45;2.58;;;5.70;99.90;;;;;;5114666;27;20046;-67
2022/01/17 04:35:52;;;;;;;13.27;2.53;;;5.70;99.90;;;;;;5115359;27;20507;-67
2022/01/17 04:38:18;;;;;;;18.88;2.72;;;5.70;99.90;;;;;;5133479;27;20088;-68
2022/01/17 04:40:50;;;;;;;13.40;2.75;;;5.70;99.90;;;;;;5133465;27;20444;-68
2022/01/17 04:43:44;;;;;;;14.80;3.07;;;5.60;99.90;;;;;;5133094;27;20046;-68
2022/01/17 04:46:07;;;;;;;15.27;2.15;;;5.70;99.90;;;;;;5132640;27;20043;-68
2022/01/17 04:48:34;;;;;;;9.02;2.13;;;5.70;99.90;;;;;;5097910;27;20039;-68
2022/01/17 04:51:00;;;;;;;16.38;2.33;;;5.60;99.90;;;;;;5133281;27;20043;-68
2022/01/17 04:53:27;;;;;;;20.50;2.50;;;5.60;99.90;;;;;;5132776;27;20043;-68
2022/01/17 04:55:52;;;;;;;17.55;2.92;;;5.60;99.90;;;;;;5114846;27;20130;-68
2022/01/17 04:58:18;;;;;;;13.52;2.25;;;5.60;99.90;;;;;;5133051;27;20084;-67
2022/01/17 05:00:47;;;;;;;18.85;2.35;;;5.60;99.90;;;;;;5114820;27;20079;-68
2022/01/17 05:03:14;;;;;;;17.23;2.70;;;5.60;99.90;;;;;;5113940;27;20077;-67
2022/01/17 05:05:39;;;;;;;14.82;3.35;;;5.60;99.90;;;;;;5114671;27;20047;-67
2022/01/17 05:08:05;;;;;;;15.63;2.78;;;5.60;99.90;;;;;;5114654;27;20042;-68
2022/01/17 05:10:31;;;;;;;17.55;2.40;;;5.60;99.90;;;;;;5119154;27;20106;-67
2022/01/17 05:12:56;;;;;;;14.48;2.40;;;5.60;99.90;;;;;;5118969;27;20058;-67
2022/01/17 05:15:29;;;;;;;19.40;2.72;;;5.60;99.90;;;;;;5119169;28;20098;-67
2022/01/17 05:20:26;;;;;;;14.18;2.05;;;5.70;99.90;;;;;;5114351;28;20043;-68
2022/01/17 05:22:52;;;;;;;16.40;2.20;;;5.70;99.90;;;;;;5114058;27;20092;-67
2022/01/17 05:25:18;;;;;;;12.68;2.45;;;5.70;99.90;;;;;;5097459;28;20078;-67
2022/01/17 05:27:44;;;;;;;21.00;3.47;;;5.70;99.90;;;;;;5132646;28;20059;-68
2022/01/17 05:30:14;;;;;;;19.13;3.33;;;5.70;99.90;;;;;;5132648;28;20035;-68
2022/01/17 05:32:40;;;;;;;9.48;2.30;;;5.70;99.90;;;;;;5132268;27;20042;-68
2022/01/17 05:35:06;;;;;;;11.85;2.25;;;5.70;99.90;;;;;;5132686;28;20039;-68
2022/01/17 05:37:32;;;;;;;13.45;2.88;;;5.70;99.90;;;;;;5132430;28;20483;-67
2022/01/17 05:39:58;;;;;;;15.43;3.55;;;5.80;99.90;;;;;;5114301;28;20050;-67
2022/01/17 05:42:24;;;;;;;13.00;3.17;;;5.80;99.90;;;;;;5113851;28;20479;-68
2022/01/17 05:44:52;;;;;;;17.42;2.80;;;5.80;99.90;;;;;;5114169;28;20071;-68
2022/01/17 05:47:17;;;;;;;17.95;3.03;;;5.80;99.90;;;;;;5132725;28;20394;-68
2022/01/17 05:49:43;;;;;;;24.05;3.25;;;5.90;99.90;;;;;;5114445;28;20055;-68
2022/01/17 05:52:10;;;;;;;13.73;3.08;;;5.90;99.90;;;;;;5113214;28;20059;-67
2022/01/17 05:54:37;;;;;;;12.30;3.15;;;5.90;99.90;;;;;;5114072;28;20050;-68
2022/01/17 05:57:03;;;;;;;14.30;3.70;;;5.90;99.90;;;;;;5097315;28;20070;-68
2022/01/17 05:59:28;;;;;;;18.10;4.22;;;5.90;99.90;;;;;;5114113;28;20106;-68
2022/01/17 06:01:54;;;;;;;15.75;4.20;;;5.90;99.90;;;;;;5132122;28;20126;-68
2022/01/17 06:04:20;;;;;;;13.90;4.22;;;5.90;99.90;;;;;;5113926;28;20387;-68
2022/01/17 06:06:46;;;;;;;23.95;6.18;;;5.90;99.90;;;;;;5114093;28;20096;-67
2022/01/17 06:09:12;;;;;;;17.25;4.82;;;6.00;99.90;;;;;;5097011;28;20380;-68
2022/01/17 06:11:38;;;;;;;27.30;5.78;;;6.00;99.90;;;;;;5113723;28;20046;-68
2022/01/17 06:14:04;;;;;;;26.65;4.60;;;6.10;99.90;;;;;;5113695;28;20043;-67
2022/01/17 06:16:30;;;;;;;24.92;4.22;;;6.00;99.90;;;;;;5113939;28;20054;-68
2022/01/17 06:18:56;;;;;;;17.60;3.50;;;6.00;99.90;;;;;;5113743;28;20114;-68
2022/01/17 06:21:21;;;;;;;20.90;4.53;;;6.00;99.90;;;;;;5132096;28;20050;-68
2022/01/17 06:23:47;;;;;;;14.43;3.45;;;6.10;99.90;;;;;;5113250;28;20047;-68
2022/01/17 06:26:13;;;;;;;15.60;3.95;;;6.10;99.90;;;;;;5132603;27;20046;-68
2022/01/17 06:28:39;;;;;;;18.20;4.03;;;6.10;99.90;;;;;;5135965;27;20050;-68
2022/01/17 06:31:04;;;;;;;18.23;4.32;;;6.10;99.90;;;;;;5117564;27;20039;-68
2022/01/17 06:33:30;;;;;;;17.42;4.47;;;6.10;99.90;;;;;;5117039;27;20103;-68
2022/01/17 06:35:55;;;;;;;16.05;3.67;;;6.10;99.90;;;;;;5118171;27;20429;-68
2022/01/17 06:38:21;;;;;;;18.17;4.20;;;6.20;99.90;;;;;;5144791;27;20039;-68
2022/01/17 06:40:47;;;;;;;15.45;4.50;;;6.20;99.90;;;;;;5142492;27;20054;-68
2022/01/17 06:43:12;;;;;;;22.85;4.95;;;6.20;99.90;;;;;;5135388;27;20035;-68
2022/01/17 06:45:38;;;;;;;17.08;5.00;;;6.20;99.90;;;;;;5135659;27;20046;-68
2022/01/17 06:48:06;;;;;;;20.33;5.32;;;6.20;99.90;;;;;;5117201;27;20039;-68
2022/01/17 06:50:33;;;;;;;15.00;4.80;;;6.20;99.90;;;;;;5135642;27;20368;-68
2022/01/17 06:52:59;;;;;;;25.58;5.10;;;6.20;99.90;;;;;;5117037;27;20082;-68
2022/01/17 06:55:24;;;;;;;11.38;4.47;;;6.20;99.90;;;;;;5116866;27;20082;-68
2022/01/17 06:57:50;;;;;;;18.00;4.93;;;6.30;99.90;;;;;;5135470;27;20039;-68
2022/01/17 07:00:16;;;;;;;19.27;5.10;;;6.30;99.90;;;;;;5117343;27;20479;-68
2022/01/17 07:02:42;;;;;;;33.20;8.02;;;6.30;99.90;;;;;;5116361;27;20039;-68
2022/01/17 07:05:08;;;;;;;24.13;6.72;;;6.40;99.90;;;;;;5117279;27;20096;-68
2022/01/17 07:07:33;;;;;;;15.75;5.25;;;6.40;99.90;;;;;;5116541;27;20562;-68
2022/01/17 07:09:59;;;;;;;17.27;5.80;;;6.40;99.90;;;;;;5116726;27;20123;-68
2022/01/17 07:12:25;;;;;;;26.85;6.70;;;6.40;99.90;;;;;;5134862;27;20445;-68
2022/01/17 07:14:50;;;;;;;22.77;6.93;;;6.40;99.90;;;;;;5116748;27;20495;-68
2022/01/17 07:17:16;;;;;;;20.95;6.07;;;6.40;99.90;;;;;;5116901;27;20043;-67
2022/01/17 07:19:41;;;;;;;24.45;6.53;;;6.40;99.90;;;;;;5116636;27;20087;-68
2022/01/17 07:22:08;;;;;;;18.73;5.68;;;6.40;99.90;;;;;;5134619;27;20078;-68
2022/01/17 07:24:34;;;;;;;15.82;5.35;;;6.40;99.90;;;;;;5116356;27;20043;-68
2022/01/17 07:27:00;;;;;;;22.00;5.57;;;6.40;99.90;;;;;;5116342;27;20407;-68
2022/01/17 07:29:26;;;;;;;27.52;6.05;;;6.40;99.90;;;;;;5116296;27;20035;-68
2022/01/17 07:31:53;;;;;;;21.05;5.93;;;6.40;99.90;;;;;;5134480;27;20095;-68
2022/01/17 07:34:19;;;;;;;20.17;5.35;;;6.40;99.90;;;;;;5131407;27;20057;-68
2022/01/17 07:36:44;;;;;;;19.42;5.55;;;6.40;99.90;;;;;;5131788;27;20739;-68
2022/01/17 07:39:10;;;;;;;23.00;5.85;;;6.40;99.90;;;;;;5095726;27;20049;-69
2022/01/17 07:41:36;;;;;;;17.67;6.15;;;6.40;99.90;;;;;;5131524;27;20035;-68
2022/01/17 07:44:03;;;;;;;23.20;5.80;;;6.40;99.90;;;;;;5096358;27;20394;-68
2022/01/17 07:46:35;;;;;;;22.95;5.97;;;6.40;99.90;;;;;;5114661;27;20487;-68
2022/01/17 07:49:13;;;;;;;24.60;5.68;;;6.40;99.90;;;;;;5134775;27;20046;-68
2022/01/17 07:51:43;;;;;;;24.38;6.43;;;6.50;99.90;;;;;;5115177;27;20099;-68
2022/01/17 07:54:11;;;;;;;18.73;5.57;;;6.50;99.90;;;;;;5115326;27;20043;-68
2022/01/17 07:56:38;;;;;;;17.42;5.22;;;6.50;99.90;;;;;;5114787;27;20043;-68
2022/01/17 07:59:07;;;;;;;20.60;5.63;;;6.50;99.90;;;;;;5137832;27;20035;-68
2022/01/17 08:01:32;;;;;;;18.33;5.28;;;6.50;99.90;;;;;;5141009;27;20043;-68
2022/01/17 08:03:58;;;;;;;25.20;5.88;;;6.50;99.90;;;;;;5120052;27;20095;-68
2022/01/17 08:06:23;;;;;;;25.35;5.75;;;6.50;99.90;;;;;;5124529;27;20513;-68
2022/01/17 08:08:49;;;;;;;21.83;5.47;;;6.50;99.90;;;;;;5128800;27;20401;-68
2022/01/17 08:11:15;;;;;;;25.90;5.72;;;6.50;99.90;;;;;;5154839;27;20039;-68
2022/01/17 08:13:41;;;;;;;22.45;5.70;;;6.60;99.90;;;;;;5135996;27;20121;-68
2022/01/17 08:16:07;;;;;;;22.77;5.90;;;6.60;99.90;;;;;;5154672;27;20077;-68
2022/01/17 08:18:33;;;;;;;22.73;5.50;;;6.60;99.90;;;;;;5136315;27;20553;-68
2022/01/17 08:20:58;;;;;;;27.15;6.28;;;6.60;99.90;;;;;;5136095;27;20039;-68
2022/01/17 08:23:24;;;;;;;30.45;5.30;;;6.60;99.90;;;;;;5135606;27;20115;-68
2022/01/17 08:25:50;;;;;;;19.65;4.65;;;6.60;99.90;;;;;;5136030;27;20068;-68
2022/01/17 08:28:16;;;;;;;35.60;10.82;;;6.60;99.90;;;;;;5135671;27;20198;-68
2022/01/17 08:30:41;;;;;;;24.33;5.53;;;6.60;99.90;;;;;;5135714;27;20059;-68
2022/01/17 08:33:07;;;;;;;18.42;5.72;;;6.60;99.90;;;;;;5153701;27;20034;-69
2022/01/17 08:35:33;;;;;;;27.63;6.63;;;6.60;99.90;;;;;;5136040;27;20091;-68
2022/01/17 08:37:59;;;;;;;30.75;5.35;;;6.70;99.90;;;;;;5118964;27;20039;-68
2022/01/17 08:40:25;;;;;;;32.08;4.88;;;6.70;99.90;;;;;;5118615;27;20043;-68
2022/01/17 08:42:51;;;;;;;21.10;5.60;;;6.70;99.90;;;;;;5135425;27;20046;-68
2022/01/17 08:45:21;;;;;;;26.40;4.63;;;6.70;99.90;;;;;;5135566;27;20078;-68
2022/01/17 08:47:49;;;;;;;25.67;4.70;;;6.70;99.90;;;;;;5135480;27;20049;-68
2022/01/17 08:50:17;;;;;;;21.08;5.00;;;6.70;99.90;;;;;;5135192;27;20047;-67
2022/01/17 08:52:46;;;;;;;22.02;4.35;;;6.80;99.90;;;;;;5153618;27;20448;-67
2022/01/17 08:55:14;;;;;;;25.02;4.43;;;6.80;99.90;;;;;;5135432;27;20118;-67
2022/01/17 08:57:39;;;;;;;27.13;4.55;;;6.80;99.90;;;;;;5153961;27;20053;-68
2022/01/17 09:00:13;;;;;;;18.90;3.80;;;6.80;99.90;;;;;;5135293;27;20034;-67
2022/01/17 09:02:39;;;;;;;29.15;4.72;;;6.80;99.90;;;;;;5134920;27;20051;-68
2022/01/17 09:05:05;;;;;;;24.13;4.72;;;6.80;99.90;;;;;;5153796;27;20110;-68
2022/01/17 09:07:31;;;;;;;26.48;4.63;;;6.90;99.90;;;;;;5153742;27;20030;-68
2022/01/17 09:09:57;;;;;;;29.48;4.95;;;6.90;99.90;;;;;;5135233;27;20678;-67
2022/01/17 09:12:22;;;;;;;22.80;4.60;;;6.90;99.90;;;;;;5135214;27;20448;-67
2022/01/17 09:14:48;;;;;;;24.20;3.83;;;6.90;99.90;;;;;;5153474;27;20038;-67
2022/01/17 09:17:14;;;;;;;27.83;4.47;;;6.90;99.90;;;;;;5153674;27;20031;-67
2022/01/17 09:19:42;;;;;;;35.13;4.78;;;6.90;99.90;;;;;;5135970;27;20039;-67
2022/01/17 09:22:09;;;;;;;25.63;4.47;;;6.90;99.90;;;;;;5137052;27;20039;-67
2022/01/17 09:24:36;;;;;;;32.22;4.47;;;6.90;99.90;;;;;;5135822;27;20521;-67
2022/01/17 09:27:03;;;;;;;33.55;5.15;;;7.00;99.90;;;;;;5134993;27;20038;-67
2022/01/17 09:29:29;;;;;;;25.30;4.13;;;7.00;99.90;;;;;;5134791;27;20043;-67
2022/01/17 09:31:55;;;;;;;30.27;5.40;;;7.10;99.90;;;;;;5134631;27;20035;-67
2022/01/17 09:34:20;;;;;;;30.92;4.88;;;7.00;99.90;;;;;;5134778;27;20054;-67
2022/01/17 09:36:47;;;;;;;29.92;5.28;;;7.10;99.90;;;;;;5135041;27;20042;-68
2022/01/17 09:39:13;;;;;;;19.98;4.60;;;7.10;99.90;;;;;;5153482;27;20083;-68
2022/01/17 09:41:39;;;;;;;23.38;4.65;;;7.10;99.90;;;;;;5134475;27;20094;-67
2022/01/17 09:44:05;;;;;;;28.17;4.22;;;7.10;99.90;;;;;;5134393;27;20042;-68
2022/01/17 09:46:37;;;;;;;22.90;3.85;;;7.20;99.90;;;;;;5134693;27;20074;-67
2022/01/17 09:49:14;;;;;;;33.25;4.95;;;7.20;99.90;;;;;;5134972;27;20053;-68
2022/01/17 09:54:28;;;;;;;23.20;5.68;;;7.30;99.90;;;;;;5153197;27;20118;-67
2022/01/17 09:56:55;;;;;;;41.17;7.15;;;7.30;99.90;;;;;;5134821;27;20085;-67
2022/01/17 09:59:21;;;;;;;35.60;7.00;;;7.40;99.90;;;;;;5135091;27;20081;-68
2022/01/17 10:01:47;;;;;;;35.10;6.53;;;7.40;99.90;;;;;;5154557;27;20078;-68
2022/01/17 10:04:13;;;;;;;41.80;6.03;;;7.50;99.90;;;;;;5139039;27;20047;-67
2022/01/17 10:06:43;;;;;;;33.45;4.82;;;7.50;99.90;;;;;;5138854;27;20107;-67
2022/01/17 10:09:13;;;;;;;37.28;6.45;;;7.50;99.90;;;;;;5138726;27;20117;-67
2022/01/17 10:12:02;;;;;;;34.80;7.85;;;7.60;99.90;;;;;;5138485;27;20034;-67
2022/01/17 10:14:29;;;;;;;25.42;4.18;;;7.60;99.90;;;;;;5138593;27;20086;-67
2022/01/17 10:16:55;;;;;;;32.70;5.00;;;7.60;99.90;;;;;;5121455;27;20038;-68
2022/01/17 10:19:26;;;;;;;29.75;5.15;;;7.70;99.90;;;;;;5156872;27;20122;-68
2022/01/17 10:21:56;;;;;;;33.03;4.70;;;7.70;99.90;;;;;;5156724;27;20399;-68
2022/01/17 10:25:20;;;;;;;28.63;4.43;;;7.70;99.90;;;;;;5138285;27;20042;-68
2022/01/17 10:30:18;;;;;;;27.75;4.95;;;7.80;99.90;;;;;;5137938;27;20462;-68
2022/01/17 10:35:36;;;;;;;36.30;5.35;;;7.90;99.90;;;;;;5138049;27;20082;-68
2022/01/17 10:38:08;;;;;;;30.80;4.80;;;8.00;99.90;;;;;;5138016;27;20070;-68
2022/01/17 10:40:50;;;;;;;34.80;6.07;;;8.00;99.90;;;;;;5121907;27;20042;-68
2022/01/17 10:43:28;;;;;;;39.75;4.95;;;8.00;99.90;;;;;;5139137;27;20049;-68
2022/01/17 10:45:56;;;;;;;30.17;4.93;;;8.00;99.90;;;;;;5138184;27;20074;-68
2022/01/17 10:48:34;;;;;;;31.95;4.82;;;8.10;99.90;;;;;;5137894;27;20039;-68
2022/01/17 10:51:01;;;;;;;33.88;4.50;;;8.10;99.90;;;;;;5117664;27;20054;-67
2022/01/17 10:53:27;;;;;;;35.72;5.85;;;8.10;99.90;;;;;;5135280;27;20064;-67
2022/01/17 10:55:55;;;;;;;30.75;5.60;;;8.10;99.90;;;;;;5135356;27;20043;-67
2022/01/17 10:58:25;;;;;;;30.30;4.22;;;8.20;99.90;;;;;;5117101;27;20039;-67
2022/01/17 11:00:54;;;;;;;40.13;6.53;;;8.20;99.90;;;;;;5135352;27;20432;-67
2022/01/17 11:03:24;;;;;;;31.27;5.97;;;8.30;99.90;;;;;;5134892;27;20463;-67
2022/01/17 11:05:55;;;;;;;42.95;5.68;;;8.30;99.90;;;;;;5116994;27;20050;-68
2022/01/17 11:08:23;;;;;;;35.10;5.55;;;8.40;99.90;;;;;;5117746;27;20043;-72
2022/01/17 11:10:53;;;;;;;36.15;5.43;;;8.50;99.90;;;;;;5117093;27;20066;-69
2022/01/17 11:13:21;;;;;;;42.47;5.40;;;8.50;99.90;;;;;;5116197;27;20047;-69
2022/01/17 11:15:52;;;;;;;41.30;5.22;;;8.60;99.90;;;;;;5116804;27;20050;-69
2022/01/17 11:18:24;;;;;;;45.33;5.95;;;8.60;99.90;;;;;;5135120;27;20472;-69
2022/01/17 11:20:56;;;;;;;38.33;5.40;;;8.60;99.90;;;;;;5116895;27;20050;-69
2022/01/17 11:23:22;;;;;;;52.47;9.18;;;8.70;99.90;;;;;;5115654;27;20416;-69
2022/01/17 11:25:53;;;;;;;32.08;5.07;;;8.70;99.90;;;;;;5116637;27;20050;-69
2022/01/17 11:28:22;;;;;;;37.45;5.60;;;8.70;99.90;;;;;;5116435;27;20039;-69
2022/01/17 11:30:49;;;;;;;37.15;6.40;;;8.70;99.90;;;;;;5117036;27;20035;-69
2022/01/17 11:33:15;;;;;;;28.05;4.97;;;8.70;99.90;;;;;;5116020;27;20091;-69
2022/01/17 11:35:42;;;;;;;46.70;5.40;;;8.70;99.90;;;;;;5116533;27;20436;-69
2022/01/17 11:38:16;;;;;;;37.10;5.55;;;8.70;99.90;;;;;;5116340;27;20070;-69
2022/01/17 11:40:43;;;;;;;39.53;5.97;;;8.70;99.90;;;;;;5116132;27;20043;-69
2022/01/17 11:43:20;;;;;;;37.75;6.10;;;8.80;99.90;;;;;;5116386;27;20039;-69
2022/01/17 11:45:47;;;;;;;43.90;5.03;;;8.80;99.90;;;;;;5116018;27;20043;-70
2022/01/17 11:48:19;;;;;;;46.63;7.22;;;8.80;99.90;;;;;;5134574;27;20050;-70
2022/01/17 11:50:47;;;;;;;45.40;5.30;;;8.90;99.90;;;;;;5116069;27;20050;-68
2022/01/17 11:53:13;;;;;;;49.45;6.30;;;8.90;99.90;;;;;;5134113;27;20138;-68
2022/01/17 11:55:38;;;;;;;38.30;6.20;;;8.90;99.90;;;;;;5116161;27;20083;-68
2022/01/17 11:58:21;;;;;;;51.95;6.47;;;8.90;99.90;;;;;;5116615;27;20043;-68
2022/01/17 12:00:57;;;;;;;46.00;6.40;;;9.00;99.90;;;;;;5140466;27;20046;-68
2022/01/17 12:03:27;;;;;;;49.25;6.82;;;9.00;99.90;;;;;;5124059;27;20047;-68
2022/01/17 12:05:55;;;;;;;31.73;5.05;;;9.00;99.90;;;;;;5118482;27;20047;-69
2022/01/17 12:08:24;;;;;;;43.42;5.82;;;9.10;99.90;;;;;;5116539;27;20047;-68
2022/01/17 12:11:03;;;;;;;34.13;5.82;;;9.20;99.90;;;;;;5136421;27;20039;-68
2022/01/17 12:13:39;;;;;;;38.28;6.32;;;9.10;99.90;;;;;;5154530;27;20054;-68
2022/01/17 12:16:09;;;;;;;39.72;6.45;;;9.20;99.90;;;;;;5154509;27;20035;-68
2022/01/17 12:18:39;;;;;;;38.85;6.93;;;9.20;99.90;;;;;;5132954;27;20028;-68
2022/01/17 12:21:31;;;;;;;47.92;6.03;;;9.30;99.90;;;;;;5114826;27;20039;-67
2022/01/17 12:24:15;;;;;;;33.60;5.00;;;9.30;99.90;;;;;;5114078;27;20112;-68
2022/01/17 12:26:42;;;;;;;31.83;7.10;;;9.40;99.90;;;;;;5112078;27;20035;-68
2022/01/17 12:29:08;;;;;;;37.70;5.95;;;9.30;99.90;;;;;;5114689;27;20042;-68
2022/01/17 12:31:43;;;;;;;27.65;5.20;;;9.40;99.90;;;;;;5114787;27;20043;-68
2022/01/17 12:34:24;;;;;;;42.00;5.70;;;9.30;99.90;;;;;;5115129;27;20507;-68
2022/01/17 12:36:58;;;;;;;32.97;5.80;;;9.40;99.90;;;;;;5115453;27;20046;-68
2022/01/17 12:39:26;;;;;;;35.80;5.72;;;9.40;99.90;;;;;;5115339;27;20054;-69
2022/01/17 12:42:00;;;;;;;35.83;6.47;;;9.40;99.90;;;;;;5114869;27;20099;-68
2022/01/17 12:44:28;;;;;;;38.70;5.80;;;9.40;99.90;;;;;;5115092;27;20042;-68
2022/01/17 12:47:01;;;;;;;24.75;5.38;;;9.40;99.90;;;;;;5115074;27;20042;-69
2022/01/17 12:49:27;;;;;;;35.17;5.85;;;9.40;99.90;;;;;;5114865;27;20046;-69
2022/01/17 12:51:56;;;;;;;43.72;5.40;;;9.40;99.90;;;;;;5132930;27;20418;-68
2022/01/17 12:54:25;;;;;;;38.45;6.03;;;9.50;99.90;;;;;;5132828;27;20043;-68
2022/01/17 12:56:54;;;;;;;42.55;5.55;;;9.50;99.90;;;;;;5114168;27;20058;-68
2022/01/17 12:59:20;;;;;;;27.85;4.57;;;9.50;99.90;;;;;;5114576;27;20143;-69
2022/01/17 13:01:49;;;;;;;35.22;5.82;;;9.50;99.90;;;;;;5114493;27;20039;-68
2022/01/17 13:04:16;;;;;;;36.35;5.82;;;9.50;99.90;;;;;;5114463;27;20043;-68
2022/01/17 13:06:44;;;;;;;42.13;5.38;;;9.50;99.90;;;;;;5114720;27;20070;-68
2022/01/17 13:09:20;;;;;;;35.40;5.00;;;9.50;99.90;;;;;;5114893;27;20047;-68
2022/01/17 13:11:48;;;;;;;46.65;6.25;;;9.40;99.90;;;;;;5132755;27;20042;-68
2022/01/17 13:14:19;;;;;;;34.35;5.65;;;9.40;99.90;;;;;;5132991;27;20043;-68
2022/01/17 13:16:47;;;;;;;46.03;5.93;;;9.50;99.90;;;;;;5132966;27;20042;-68